F/v_l'omerta — FHXG — position and weather

sailwx.info

Track history (hours):
 
Tides and Currents Weather Stations Pressure Air Temp Water Temp Dewpoint Dewpoint Depression Visibility Wind Speed Wind Dir Waves Ship Positions

F/v_l'omerta

Last reported at 2016-Dec-09 11:33 UTC. Time now 2016-Dec-09 11:46 UTC.
Position N 46°30' W 001°47'.

Length 18 m.

Type: Fishing. MMSI: 227903000.

Date/timePositionNaut miles runAvg speedWind from/ knotsBaromVisibWave heightAir tempDewpointWater temp
2016-Dec-09 11:33N 46°30' W 001°47'0 0.0
2016-Dec-09 10:33N 46°30' W 001°47'0 0.0
2016-Dec-09 09:33N 46°30' W 001°47'0 0.0
2016-Dec-09 08:33N 46°30' W 001°47'0 0.0
2016-Dec-09 07:33N 46°30' W 001°47'0 0.0
2016-Dec-08 13:21N 46°30' W 001°47'0 0.0
2016-Dec-08 11:32N 46°30' W 001°47'0 0.0
2016-Dec-08 10:33N 46°30' W 001°47'0 0.0
2016-Dec-08 09:33N 46°30' W 001°47'1 0.6
2016-Dec-08 08:33N 46°29' W 001°47'1 0.6
2016-Dec-08 07:33N 46°30' W 001°47'0 0.0
2016-Dec-07 20:33N 46°30' W 001°47'0 0.1
2016-Dec-07 19:33N 46°30' W 001°47'1 1.4
2016-Dec-07 18:33N 46°29' W 001°47'10 9.6
2016-Dec-07 17:33N 46°24' W 001°60'12 9.7
2016-Dec-07 16:22N 46°19' W 002°15'5 2.5
2016-Dec-07 14:27N 46°15' W 002°18'2 2.3
2016-Dec-07 13:33N 46°13' W 002°18'4 3.4
2016-Dec-07 12:29N 46°16' W 002°20'1 1.2
2016-Dec-07 11:28N 46°16' W 002°19'2 2.4
2016-Dec-07 10:25N 46°13' W 002°18'3 3.6
2016-Dec-07 09:33N 46°16' W 002°20'1 1.3
2016-Dec-07 08:29N 46°17' W 002°18'2 1.7
2016-Dec-07 07:14N 46°15' W 002°18'3 3.6
2016-Dec-07 06:32N 46°17' W 002°20'2 2.0
2016-Dec-07 05:32N 46°17' W 002°17'2 2.4
2016-Dec-07 04:33N 46°14' W 002°17'2 2.1
2016-Dec-07 03:32N 46°16' W 002°19'3 3.2
2016-Dec-07 02:33N 46°17' W 002°14'3 1.5
2016-Dec-07 00:30N 46°16' W 002°18'3 2.8
2016-Dec-06 23:33N 46°18' W 002°17'3 2.8
2016-Dec-06 22:33N 46°16' W 002°15'2 2.1
2016-Dec-06 21:33N 46°15' W 002°17'3 0.4
2016-Dec-06 13:26N 46°17' W 002°15'4 0.4
2016-Dec-06 04:32N 46°17' W 002°21'14 3.1
2016-Dec-06 00:11N 46°29' W 002°30'16 2.1
2016-Dec-05 16:30N 46°42' W 002°44'1 1.2
2016-Dec-05 15:24N 46°44' W 002°44'3 2.3
2016-Dec-05 14:17N 46°42' W 002°41'3 3.3
2016-Dec-05 13:20N 46°42' W 002°46'22 1.5
2016-Dec-04 23:12N 46°31' W 002°19'6 9.7
2016-Dec-04 22:33N 46°30' W 002°10'10 9.7
2016-Dec-04 21:33N 46°29' W 001°56'6 5.8
2016-Dec-04 20:33N 46°30' W 001°47'0 0.0
2016-Dec-04 19:33N 46°30' W 001°47'0 0.2
2016-Dec-04 18:33N 46°30' W 001°47'7 7.5
2016-Dec-04 17:33N 46°27' W 001°57'10 9.3
2016-Dec-04 16:32N 46°24' W 002°11'20 1.9
2016-Dec-04 05:31N 46°35' W 002°36'5 2.2
2016-Dec-04 03:10N 46°34' W 002°28'1 2.2
2016-Dec-04 02:32N 46°35' W 002°29'9 2.8
2016-Dec-03 23:29N 46°39' W 002°40'2 2.0
2016-Dec-03 22:32N 46°41' W 002°41'3 0.1
2016-Dec-02 13:26N 46°39' W 002°39'3 2.4
2016-Dec-02 12:19N 46°40' W 002°42'2 3.0
2016-Dec-02 11:30N 46°42' W 002°45'1 1.0
2016-Dec-02 10:33N 46°42' W 002°46'3 2.6
2016-Dec-02 09:33N 46°39' W 002°46'3 3.2
2016-Dec-02 08:33N 46°42' W 002°49'2 1.8
2016-Dec-02 07:33N 46°42' W 002°46'4 4.4
2016-Dec-02 06:33N 46°39' W 002°41'9 9.1
2016-Dec-02 05:33N 46°36' W 002°28'9 9.0
2016-Dec-02 04:33N 46°34' W 002°16'9 9.0
2016-Dec-02 03:33N 46°31' W 002°03'9 9.0
2016-Dec-02 02:33N 46°29' W 001°51'2 2.5
2016-Dec-02 01:33N 46°30' W 001°48'8 8.3
2016-Dec-02 00:33N 46°26' W 001°58'8 7.9
2016-Dec-01 23:33N 46°24' W 002°09'3 3.0
2016-Dec-01 22:33N 46°23' W 002°13'3 2.7
2016-Dec-01 21:33N 46°24' W 002°17'3 3.2
2016-Dec-01 20:33N 46°26' W 002°20'3 3.5
2016-Dec-01 19:33N 46°29' W 002°23'4 0.9
2016-Dec-01 15:11N 46°30' W 002°28'13 1.6
2016-Dec-01 07:15N 46°27' W 002°10'7 9.8
2016-Dec-01 06:34N 46°27' W 002°00'9 8.8
2016-Dec-01 05:33N 46°28' W 001°48'2 1.7
2016-Dec-01 04:33N 46°30' W 001°47'0 0.0
2016-Dec-01 03:33N 46°30' W 001°47'0 0.0
2016-Dec-01 02:33N 46°30' W 001°47'0 0.0
2016-Dec-01 01:33N 46°30' W 001°47'0 0.0
2016-Dec-01 00:33N 46°30' W 001°47'0 0.0
2016-Nov-30 23:33N 46°30' W 001°47'0 0.0
2016-Nov-30 22:33N 46°30' W 001°47'0 0.0
2016-Nov-30 21:33N 46°30' W 001°47'0 0.0
2016-Nov-30 20:33N 46°30' W 001°47'0 0.0
2016-Nov-30 19:33N 46°30' W 001°47'0 0.0
2016-Nov-30 18:33N 46°30' W 001°47'0 0.0
2016-Nov-30 17:33N 46°30' W 001°47'0 0.0
2016-Nov-30 16:33N 46°30' W 001°47'0 0.0
2016-Nov-30 15:33N 46°30' W 001°47'0 0.0
2016-Nov-30 14:33N 46°30' W 001°47'0 0.0
2016-Nov-30 13:33N 46°30' W 001°47'0 0.0
2016-Nov-30 12:33N 46°30' W 001°47'0 0.0
2016-Nov-30 11:33N 46°30' W 001°47'0 0.0
2016-Nov-30 10:33N 46°30' W 001°47'0 0.0
2016-Nov-30 09:33N 46°30' W 001°47'0 0.0
2016-Nov-30 08:33N 46°30' W 001°47'0 0.0
2016-Nov-30 07:33N 46°30' W 001°47'0 0.0
2016-Nov-30 06:33N 46°30' W 001°47'0 0.0
2016-Nov-30 05:33N 46°30' W 001°47'0 0.0
2016-Nov-30 04:33N 46°30' W 001°47'0 0.0
2016-Nov-30 03:33N 46°30' W 001°47'0 0.0
2016-Nov-30 02:33N 46°30' W 001°47'0 0.0
2016-Nov-30 01:33N 46°30' W 001°47'0 0.0
2016-Nov-30 00:33N 46°30' W 001°47'0 0.0
2016-Nov-29 23:33N 46°30' W 001°47'0 0.0
2016-Nov-29 22:33N 46°30' W 001°47'0 0.0
2016-Nov-29 21:33N 46°30' W 001°47'0 0.0
2016-Nov-29 20:33N 46°30' W 001°47'0 0.0
2016-Nov-29 19:33N 46°30' W 001°47'0 0.0
2016-Nov-29 18:33N 46°30' W 001°47'0 0.0
2016-Nov-29 17:33N 46°30' W 001°47'0 0.0
2016-Nov-29 16:33N 46°30' W 001°47'0 0.0
2016-Nov-29 15:33N 46°30' W 001°47'0 0.0
2016-Nov-29 14:33N 46°30' W 001°47'0 0.0
2016-Nov-29 13:33N 46°30' W 001°47'0 0.0
2016-Nov-29 12:33N 46°30' W 001°47'0 0.0
2016-Nov-29 11:33N 46°30' W 001°47'  
Track history (hours):
 
Tides and Currents Weather Stations Pressure Air Temp Water Temp Dewpoint Dewpoint Depression Visibility Wind Speed Wind Dir Waves Ship Positions

F/v_l'omerta

Last reported at 2016-Dec-09 11:33 UTC. Time now 2016-Dec-09 11:46 UTC.
Position N 46°30' W 001°47'.

Length 18 m.

Type: Fishing. MMSI: 227903000.

Date/timePositionNaut miles runAvg speedWind from/ knotsBaromVisibWave heightAir tempDewpointWater temp
2016-Dec-09 11:33N 46°30' W 001°47'0 0.0
2016-Dec-09 10:33N 46°30' W 001°47'0 0.0
2016-Dec-09 09:33N 46°30' W 001°47'0 0.0
2016-Dec-09 08:33N 46°30' W 001°47'0 0.0
2016-Dec-09 07:33N 46°30' W 001°47'0 0.0
2016-Dec-08 13:21N 46°30' W 001°47'0 0.0
2016-Dec-08 11:32N 46°30' W 001°47'0 0.0
2016-Dec-08 10:33N 46°30' W 001°47'0 0.0
2016-Dec-08 09:33N 46°30' W 001°47'1 0.6
2016-Dec-08 08:33N 46°29' W 001°47'1 0.6
2016-Dec-08 07:33N 46°30' W 001°47'0 0.0
2016-Dec-07 20:33N 46°30' W 001°47'0 0.1
2016-Dec-07 19:33N 46°30' W 001°47'1 1.4
2016-Dec-07 18:33N 46°29' W 001°47'10 9.6
2016-Dec-07 17:33N 46°24' W 001°60'12 9.7
2016-Dec-07 16:22N 46°19' W 002°15'5 2.5
2016-Dec-07 14:27N 46°15' W 002°18'2 2.3
2016-Dec-07 13:33N 46°13' W 002°18'4 3.4
2016-Dec-07 12:29N 46°16' W 002°20'1 1.2
2016-Dec-07 11:28N 46°16' W 002°19'2 2.4
2016-Dec-07 10:25N 46°13' W 002°18'3 3.6
2016-Dec-07 09:33N 46°16' W 002°20'1 1.3
2016-Dec-07 08:29N 46°17' W 002°18'2 1.7
2016-Dec-07 07:14N 46°15' W 002°18'3 3.6
2016-Dec-07 06:32N 46°17' W 002°20'2 2.0
2016-Dec-07 05:32N 46°17' W 002°17'2 2.4
2016-Dec-07 04:33N 46°14' W 002°17'2 2.1
2016-Dec-07 03:32N 46°16' W 002°19'3 3.2
2016-Dec-07 02:33N 46°17' W 002°14'3 1.5
2016-Dec-07 00:30N 46°16' W 002°18'3 2.8
2016-Dec-06 23:33N 46°18' W 002°17'3 2.8
2016-Dec-06 22:33N 46°16' W 002°15'2 2.1
2016-Dec-06 21:33N 46°15' W 002°17'3 0.4
2016-Dec-06 13:26N 46°17' W 002°15'4 0.4
2016-Dec-06 04:32N 46°17' W 002°21'14 3.1
2016-Dec-06 00:11N 46°29' W 002°30'16 2.1
2016-Dec-05 16:30N 46°42' W 002°44'1 1.2
2016-Dec-05 15:24N 46°44' W 002°44'3 2.3
2016-Dec-05 14:17N 46°42' W 002°41'3 3.3
2016-Dec-05 13:20N 46°42' W 002°46'22 1.5
2016-Dec-04 23:12N 46°31' W 002°19'6 9.7
2016-Dec-04 22:33N 46°30' W 002°10'10 9.7
2016-Dec-04 21:33N 46°29' W 001°56'6 5.8
2016-Dec-04 20:33N 46°30' W 001°47'0 0.0
2016-Dec-04 19:33N 46°30' W 001°47'0 0.2
2016-Dec-04 18:33N 46°30' W 001°47'7 7.5
2016-Dec-04 17:33N 46°27' W 001°57'10 9.3
2016-Dec-04 16:32N 46°24' W 002°11'20 1.9
2016-Dec-04 05:31N 46°35' W 002°36'5 2.2
2016-Dec-04 03:10N 46°34' W 002°28'1 2.2
2016-Dec-04 02:32N 46°35' W 002°29'9 2.8
2016-Dec-03 23:29N 46°39' W 002°40'2 2.0
2016-Dec-03 22:32N 46°41' W 002°41'3 0.1
2016-Dec-02 13:26N 46°39' W 002°39'3 2.4
2016-Dec-02 12:19N 46°40' W 002°42'2 3.0
2016-Dec-02 11:30N 46°42' W 002°45'1 1.0
2016-Dec-02 10:33N 46°42' W 002°46'3 2.6
2016-Dec-02 09:33N 46°39' W 002°46'3 3.2
2016-Dec-02 08:33N 46°42' W 002°49'2 1.8
2016-Dec-02 07:33N 46°42' W 002°46'4 4.4
2016-Dec-02 06:33N 46°39' W 002°41'9 9.1
2016-Dec-02 05:33N 46°36' W 002°28'9 9.0
2016-Dec-02 04:33N 46°34' W 002°16'9 9.0
2016-Dec-02 03:33N 46°31' W 002°03'9 9.0
2016-Dec-02 02:33N 46°29' W 001°51'2 2.5
2016-Dec-02 01:33N 46°30' W 001°48'8 8.3
2016-Dec-02 00:33N 46°26' W 001°58'8 7.9
2016-Dec-01 23:33N 46°24' W 002°09'3 3.0
2016-Dec-01 22:33N 46°23' W 002°13'3 2.7
2016-Dec-01 21:33N 46°24' W 002°17'3 3.2
2016-Dec-01 20:33N 46°26' W 002°20'3 3.5
2016-Dec-01 19:33N 46°29' W 002°23'4 0.9
2016-Dec-01 15:11N 46°30' W 002°28'13 1.6
2016-Dec-01 07:15N 46°27' W 002°10'7 9.8
2016-Dec-01 06:34N 46°27' W 002°00'9 8.8
2016-Dec-01 05:33N 46°28' W 001°48'2 1.7
2016-Dec-01 04:33N 46°30' W 001°47'0 0.0
2016-Dec-01 03:33N 46°30' W 001°47'0 0.0
2016-Dec-01 02:33N 46°30' W 001°47'0 0.0
2016-Dec-01 01:33N 46°30' W 001°47'0 0.0
2016-Dec-01 00:33N 46°30' W 001°47'0 0.0
2016-Nov-30 23:33N 46°30' W 001°47'0 0.0
2016-Nov-30 22:33N 46°30' W 001°47'0 0.0
2016-Nov-30 21:33N 46°30' W 001°47'0 0.0
2016-Nov-30 20:33N 46°30' W 001°47'0 0.0
2016-Nov-30 19:33N 46°30' W 001°47'0 0.0
2016-Nov-30 18:33N 46°30' W 001°47'0 0.0
2016-Nov-30 17:33N 46°30' W 001°47'0 0.0
2016-Nov-30 16:33N 46°30' W 001°47'0 0.0
2016-Nov-30 15:33N 46°30' W 001°47'0 0.0
2016-Nov-30 14:33N 46°30' W 001°47'0 0.0
2016-Nov-30 13:33N 46°30' W 001°47'0 0.0
2016-Nov-30 12:33N 46°30' W 001°47'0 0.0
2016-Nov-30 11:33N 46°30' W 001°47'0 0.0
2016-Nov-30 10:33N 46°30' W 001°47'0 0.0
2016-Nov-30 09:33N 46°30' W 001°47'0 0.0
2016-Nov-30 08:33N 46°30' W 001°47'0 0.0
2016-Nov-30 07:33N 46°30' W 001°47'0 0.0
2016-Nov-30 06:33N 46°30' W 001°47'0 0.0
2016-Nov-30 05:33N 46°30' W 001°47'0 0.0
2016-Nov-30 04:33N 46°30' W 001°47'0 0.0
2016-Nov-30 03:33N 46°30' W 001°47'0 0.0
2016-Nov-30 02:33N 46°30' W 001°47'0 0.0
2016-Nov-30 01:33N 46°30' W 001°47'0 0.0
2016-Nov-30 00:33N 46°30' W 001°47'0 0.0
2016-Nov-29 23:33N 46°30' W 001°47'0 0.0
2016-Nov-29 22:33N 46°30' W 001°47'0 0.0
2016-Nov-29 21:33N 46°30' W 001°47'0 0.0
2016-Nov-29 20:33N 46°30' W 001°47'0 0.0
2016-Nov-29 19:33N 46°30' W 001°47'0 0.0
2016-Nov-29 18:33N 46°30' W 001°47'0 0.0
2016-Nov-29 17:33N 46°30' W 001°47'0 0.0
2016-Nov-29 16:33N 46°30' W 001°47'0 0.0
2016-Nov-29 15:33N 46°30' W 001°47'0 0.0
2016-Nov-29 14:33N 46°30' W 001°47'0 0.0
2016-Nov-29 13:33N 46°30' W 001°47'0 0.0
2016-Nov-29 12:33N 46°30' W 001°47'0 0.0
2016-Nov-29 11:33N 46°30' W 001°47'  

Dump ship's entire track history